sensor_id;sensor_type;location;lat;lon;timestamp;temperature;humidity
5304;DHT22;2674;49.722;10.892;2023-08-20T00:01:49;23.60;1.00
5304;DHT22;2674;49.722;10.892;2023-08-20T00:04:18;23.60;1.00
5304;DHT22;2674;49.722;10.892;2023-08-20T00:06:44;23.60;1.00
5304;DHT22;2674;49.722;10.892;2023-08-20T00:09:11;23.60;1.00
5304;DHT22;2674;49.722;10.892;2023-08-20T00:11:37;23.60;1.00
5304;DHT22;2674;49.722;10.892;2023-08-20T00:14:04;23.60;1.00
5304;DHT22;2674;49.722;10.892;2023-08-20T00:16:29;23.60;1.00
5304;DHT22;2674;49.722;10.892;2023-08-20T00:18:56;23.60;1.00
5304;DHT22;2674;49.722;10.892;2023-08-20T00:21:22;23.50;1.00
5304;DHT22;2674;49.722;10.892;2023-08-20T00:23:48;23.50;1.00
5304;DHT22;2674;49.722;10.892;2023-08-20T00:26:14;23.50;1.00
5304;DHT22;2674;49.722;10.892;2023-08-20T00:28:40;23.40;1.00
5304;DHT22;2674;49.722;10.892;2023-08-20T00:31:06;23.40;1.00
5304;DHT22;2674;49.722;10.892;2023-08-20T00:33:32;23.40;1.00
5304;DHT22;2674;49.722;10.892;2023-08-20T00:35:58;23.30;1.00
5304;DHT22;2674;49.722;10.892;2023-08-20T00:38:23;23.30;1.00
5304;DHT22;2674;49.722;10.892;2023-08-20T00:40:49;23.30;28.10
5304;DHT22;2674;49.722;10.892;2023-08-20T00:43:15;23.20;46.20
5304;DHT22;2674;49.722;10.892;2023-08-20T00:45:42;23.20;40.90
5304;DHT22;2674;49.722;10.892;2023-08-20T00:48:08;23.20;27.10
5304;DHT22;2674;49.722;10.892;2023-08-20T00:50:34;23.20;38.90
5304;DHT22;2674;49.722;10.892;2023-08-20T00:53:00;23.20;20.50
5304;DHT22;2674;49.722;10.892;2023-08-20T00:55:27;23.20;17.50
5304;DHT22;2674;49.722;10.892;2023-08-20T00:57:53;23.20;28.50
5304;DHT22;2674;49.722;10.892;2023-08-20T01:00:19;23.10;38.30
5304;DHT22;2674;49.722;10.892;2023-08-20T01:02:46;23.10;45.60
5304;DHT22;2674;49.722;10.892;2023-08-20T01:05:12;23.10;69.90
5304;DHT22;2674;49.722;10.892;2023-08-20T01:12:46;23.00;47.40
5304;DHT22;2674;49.722;10.892;2023-08-20T01:15:12;23.00;57.00
5304;DHT22;2674;49.722;10.892;2023-08-20T01:17:42;23.00;67.50
5304;DHT22;2674;49.722;10.892;2023-08-20T01:20:11;22.90;73.90
5304;DHT22;2674;49.722;10.892;2023-08-20T01:22:43;22.90;90.70
5304;DHT22;2674;49.722;10.892;2023-08-20T01:28:34;22.90;93.60
5304;DHT22;2674;49.722;10.892;2023-08-20T01:31:01;22.90;91.90
5304;DHT22;2674;49.722;10.892;2023-08-20T01:33:29;22.90;96.50
5304;DHT22;2674;49.722;10.892;2023-08-20T01:35:56;22.80;99.20
5304;DHT22;2674;49.722;10.892;2023-08-20T01:38:22;22.80;99.90
5304;DHT22;2674;49.722;10.892;2023-08-20T01:40:48;22.70;99.90
5304;DHT22;2674;49.722;10.892;2023-08-20T01:43:14;22.70;99.90
5304;DHT22;2674;49.722;10.892;2023-08-20T01:45:42;22.70;99.90
5304;DHT22;2674;49.722;10.892;2023-08-20T01:48:08;22.70;99.90
5304;DHT22;2674;49.722;10.892;2023-08-20T01:50:35;22.70;99.90
5304;DHT22;2674;49.722;10.892;2023-08-20T01:53:01;22.60;99.90
5304;DHT22;2674;49.722;10.892;2023-08-20T01:55:28;22.60;99.90
5304;DHT22;2674;49.722;10.892;2023-08-20T01:57:54;22.60;99.90
5304;DHT22;2674;49.722;10.892;2023-08-20T02:00:20;22.60;99.90
5304;DHT22;2674;49.722;10.892;2023-08-20T02:02:46;22.60;99.90
5304;DHT22;2674;49.722;10.892;2023-08-20T02:05:11;22.60;99.90
5304;DHT22;2674;49.722;10.892;2023-08-20T02:07:38;22.60;99.90
5304;DHT22;2674;49.722;10.892;2023-08-20T02:10:04;22.60;99.90
5304;DHT22;2674;49.722;10.892;2023-08-20T02:12:30;22.50;99.90
5304;DHT22;2674;49.722;10.892;2023-08-20T02:14:56;22.60;99.90
5304;DHT22;2674;49.722;10.892;2023-08-20T02:17:22;22.50;98.30
5304;DHT22;2674;49.722;10.892;2023-08-20T02:19:49;22.60;74.20
5304;DHT22;2674;49.722;10.892;2023-08-20T02:22:14;22.60;77.70
5304;DHT22;2674;49.722;10.892;2023-08-20T02:24:40;22.60;83.70
5304;DHT22;2674;49.722;10.892;2023-08-20T02:27:06;22.60;63.70
5304;DHT22;2674;49.722;10.892;2023-08-20T02:29:32;22.60;78.40
5304;DHT22;2674;49.722;10.892;2023-08-20T02:31:58;22.60;76.20
5304;DHT22;2674;49.722;10.892;2023-08-20T02:34:23;22.60;97.20
5304;DHT22;2674;49.722;10.892;2023-08-20T02:36:49;22.50;99.90
5304;DHT22;2674;49.722;10.892;2023-08-20T02:39:15;22.50;99.90
5304;DHT22;2674;49.722;10.892;2023-08-20T02:41:42;22.50;99.90
5304;DHT22;2674;49.722;10.892;2023-08-20T02:44:09;22.50;99.90
5304;DHT22;2674;49.722;10.892;2023-08-20T02:46:34;22.40;99.90
5304;DHT22;2674;49.722;10.892;2023-08-20T02:49:00;22.40;99.90
5304;DHT22;2674;49.722;10.892;2023-08-20T02:51:26;22.30;99.90
5304;DHT22;2674;49.722;10.892;2023-08-20T02:53:52;22.30;99.90
5304;DHT22;2674;49.722;10.892;2023-08-20T02:56:18;22.20;99.90
5304;DHT22;2674;49.722;10.892;2023-08-20T02:58:44;22.20;99.90
5304;DHT22;2674;49.722;10.892;2023-08-20T03:01:21;22.20;99.90
5304;DHT22;2674;49.722;10.892;2023-08-20T03:03:46;22.10;99.90
5304;DHT22;2674;49.722;10.892;2023-08-20T03:06:12;22.10;99.90
5304;DHT22;2674;49.722;10.892;2023-08-20T03:08:39;22.00;99.90
5304;DHT22;2674;49.722;10.892;2023-08-20T03:11:04;22.00;99.90
5304;DHT22;2674;49.722;10.892;2023-08-20T03:13:30;22.00;99.90
5304;DHT22;2674;49.722;10.892;2023-08-20T03:15:56;21.90;99.90
5304;DHT22;2674;49.722;10.892;2023-08-20T03:18:22;22.00;99.90
5304;DHT22;2674;49.722;10.892;2023-08-20T03:20:47;22.00;99.90
5304;DHT22;2674;49.722;10.892;2023-08-20T03:23:13;21.90;99.90
5304;DHT22;2674;49.722;10.892;2023-08-20T03:25:42;21.90;99.90
5304;DHT22;2674;49.722;10.892;2023-08-20T03:28:08;21.80;99.90
5304;DHT22;2674;49.722;10.892;2023-08-20T03:30:34;21.80;99.90
5304;DHT22;2674;49.722;10.892;2023-08-20T03:32:59;21.80;99.90
5304;DHT22;2674;49.722;10.892;2023-08-20T03:35:25;21.70;99.90
5304;DHT22;2674;49.722;10.892;2023-08-20T03:37:51;21.70;99.90
5304;DHT22;2674;49.722;10.892;2023-08-20T03:40:17;21.70;99.90
5304;DHT22;2674;49.722;10.892;2023-08-20T03:42:44;21.70;99.90
5304;DHT22;2674;49.722;10.892;2023-08-20T03:45:09;21.70;99.90
5304;DHT22;2674;49.722;10.892;2023-08-20T03:47:35;21.60;99.90
5304;DHT22;2674;49.722;10.892;2023-08-20T03:50:03;21.70;99.90
5304;DHT22;2674;49.722;10.892;2023-08-20T03:52:29;21.70;99.90
5304;DHT22;2674;49.722;10.892;2023-08-20T03:54:55;21.60;99.90
5304;DHT22;2674;49.722;10.892;2023-08-20T03:57:21;21.60;99.90
5304;DHT22;2674;49.722;10.892;2023-08-20T03:59:47;21.60;99.90
5304;DHT22;2674;49.722;10.892;2023-08-20T04:02:14;21.60;99.90
5304;DHT22;2674;49.722;10.892;2023-08-20T04:04:40;21.60;99.90
5304;DHT22;2674;49.722;10.892;2023-08-20T04:07:06;21.60;99.90
5304;DHT22;2674;49.722;10.892;2023-08-20T04:09:35;21.60;99.90
5304;DHT22;2674;49.722;10.892;2023-08-20T04:12:03;21.60;99.90
5304;DHT22;2674;49.722;10.892;2023-08-20T04:14:29;21.60;99.90
5304;DHT22;2674;49.722;10.892;2023-08-20T04:16:54;21.60;99.90
5304;DHT22;2674;49.722;10.892;2023-08-20T04:19:20;21.60;99.90
5304;DHT22;2674;49.722;10.892;2023-08-20T04:21:46;21.60;99.90
5304;DHT22;2674;49.722;10.892;2023-08-20T04:24:15;21.60;99.90
5304;DHT22;2674;49.722;10.892;2023-08-20T04:26:43;21.60;99.90
5304;DHT22;2674;49.722;10.892;2023-08-20T04:29:09;21.60;99.90
5304;DHT22;2674;49.722;10.892;2023-08-20T04:31:35;21.70;99.90
5304;DHT22;2674;49.722;10.892;2023-08-20T04:34:01;21.70;99.90
5304;DHT22;2674;49.722;10.892;2023-08-20T04:36:27;21.70;99.90
5304;DHT22;2674;49.722;10.892;2023-08-20T04:38:53;21.70;99.90
5304;DHT22;2674;49.722;10.892;2023-08-20T04:41:19;21.70;99.90
5304;DHT22;2674;49.722;10.892;2023-08-20T04:43:45;21.70;99.90
5304;DHT22;2674;49.722;10.892;2023-08-20T04:46:11;21.70;99.90
5304;DHT22;2674;49.722;10.892;2023-08-20T04:48:36;21.70;99.90
5304;DHT22;2674;49.722;10.892;2023-08-20T04:51:02;21.60;99.90
5304;DHT22;2674;49.722;10.892;2023-08-20T04:53:29;21.60;99.90
5304;DHT22;2674;49.722;10.892;2023-08-20T04:55:56;21.60;99.90
5304;DHT22;2674;49.722;10.892;2023-08-20T04:58:22;21.70;99.90
5304;DHT22;2674;49.722;10.892;2023-08-20T05:00:48;21.70;99.90
5304;DHT22;2674;49.722;10.892;2023-08-20T05:03:14;21.70;99.90
5304;DHT22;2674;49.722;10.892;2023-08-20T05:05:39;21.80;99.90
5304;DHT22;2674;49.722;10.892;2023-08-20T05:08:05;21.80;99.90
5304;DHT22;2674;49.722;10.892;2023-08-20T05:10:31;21.80;99.90
5304;DHT22;2674;49.722;10.892;2023-08-20T05:12:57;21.80;99.90
5304;DHT22;2674;49.722;10.892;2023-08-20T05:15:26;21.80;99.90
5304;DHT22;2674;49.722;10.892;2023-08-20T05:17:51;21.80;99.90
5304;DHT22;2674;49.722;10.892;2023-08-20T05:20:17;21.80;99.90
5304;DHT22;2674;49.722;10.892;2023-08-20T05:22:43;21.80;99.90
5304;DHT22;2674;49.722;10.892;2023-08-20T05:25:09;21.90;99.90
5304;DHT22;2674;49.722;10.892;2023-08-20T05:27:35;21.90;99.90
5304;DHT22;2674;49.722;10.892;2023-08-20T05:30:00;21.90;99.90
5304;DHT22;2674;49.722;10.892;2023-08-20T05:32:26;22.00;99.90
5304;DHT22;2674;49.722;10.892;2023-08-20T05:34:52;22.10;99.90
5304;DHT22;2674;49.722;10.892;2023-08-20T05:37:18;22.20;99.90
5304;DHT22;2674;49.722;10.892;2023-08-20T05:39:44;22.30;99.90
5304;DHT22;2674;49.722;10.892;2023-08-20T05:42:10;22.30;99.90
5304;DHT22;2674;49.722;10.892;2023-08-20T05:44:36;22.40;99.90
5304;DHT22;2674;49.722;10.892;2023-08-20T05:47:02;22.50;99.90
5304;DHT22;2674;49.722;10.892;2023-08-20T05:49:28;22.60;99.90
5304;DHT22;2674;49.722;10.892;2023-08-20T05:51:54;22.80;99.90
5304;DHT22;2674;49.722;10.892;2023-08-20T05:54:20;22.90;99.90
5304;DHT22;2674;49.722;10.892;2023-08-20T05:56:46;23.10;99.90
5304;DHT22;2674;49.722;10.892;2023-08-20T05:59:12;23.30;99.90
5304;DHT22;2674;49.722;10.892;2023-08-20T06:01:38;23.30;87.50
5304;DHT22;2674;49.722;10.892;2023-08-20T06:04:04;23.30;25.90
5304;DHT22;2674;49.722;10.892;2023-08-20T06:06:30;23.30;29.00
5304;DHT22;2674;49.722;10.892;2023-08-20T06:08:55;23.40;13.40
5304;DHT22;2674;49.722;10.892;2023-08-20T06:11:21;23.40;1.00
5304;DHT22;2674;49.722;10.892;2023-08-20T06:13:47;23.50;1.00
5304;DHT22;2674;49.722;10.892;2023-08-20T06:16:13;23.60;1.00
5304;DHT22;2674;49.722;10.892;2023-08-20T06:18:39;23.70;1.00
5304;DHT22;2674;49.722;10.892;2023-08-20T06:21:05;23.70;1.00
5304;DHT22;2674;49.722;10.892;2023-08-20T06:23:31;23.80;1.00
5304;DHT22;2674;49.722;10.892;2023-08-20T06:25:56;23.90;1.00
5304;DHT22;2674;49.722;10.892;2023-08-20T06:28:22;24.00;1.00
5304;DHT22;2674;49.722;10.892;2023-08-20T06:30:49;24.00;1.00
5304;DHT22;2674;49.722;10.892;2023-08-20T06:33:15;24.10;1.00
5304;DHT22;2674;49.722;10.892;2023-08-20T06:35:41;24.10;1.00
5304;DHT22;2674;49.722;10.892;2023-08-20T06:38:07;24.20;1.00
5304;DHT22;2674;49.722;10.892;2023-08-20T06:40:33;24.30;1.00
5304;DHT22;2674;49.722;10.892;2023-08-20T06:42:59;24.40;1.00
5304;DHT22;2674;49.722;10.892;2023-08-20T06:45:25;24.40;1.00
5304;DHT22;2674;49.722;10.892;2023-08-20T06:47:51;24.50;1.00
5304;DHT22;2674;49.722;10.892;2023-08-20T06:50:17;24.50;1.00
5304;DHT22;2674;49.722;10.892;2023-08-20T06:52:43;24.50;1.00
5304;DHT22;2674;49.722;10.892;2023-08-20T06:55:09;24.60;1.00
5304;DHT22;2674;49.722;10.892;2023-08-20T06:57:35;24.60;1.00
5304;DHT22;2674;49.722;10.892;2023-08-20T07:00:00;24.60;1.00
5304;DHT22;2674;49.722;10.892;2023-08-20T07:02:26;24.60;1.00
5304;DHT22;2674;49.722;10.892;2023-08-20T07:04:52;24.70;1.00
5304;DHT22;2674;49.722;10.892;2023-08-20T07:07:18;24.90;1.00
5304;DHT22;2674;49.722;10.892;2023-08-20T07:09:44;24.90;1.00
5304;DHT22;2674;49.722;10.892;2023-08-20T07:12:10;25.00;1.00
5304;DHT22;2674;49.722;10.892;2023-08-20T07:14:35;25.10;1.00
5304;DHT22;2674;49.722;10.892;2023-08-20T07:17:01;25.20;1.00
5304;DHT22;2674;49.722;10.892;2023-08-20T07:19:29;25.30;1.00
5304;DHT22;2674;49.722;10.892;2023-08-20T07:21:54;25.40;1.00
5304;DHT22;2674;49.722;10.892;2023-08-20T07:24:21;25.40;1.00
5304;DHT22;2674;49.722;10.892;2023-08-20T07:26:53;25.50;1.00
5304;DHT22;2674;49.722;10.892;2023-08-20T07:29:25;25.60;1.00
5304;DHT22;2674;49.722;10.892;2023-08-20T07:31:51;25.80;1.00
5304;DHT22;2674;49.722;10.892;2023-08-20T07:34:17;25.90;1.00
5304;DHT22;2674;49.722;10.892;2023-08-20T07:36:43;25.90;1.00
5304;DHT22;2674;49.722;10.892;2023-08-20T07:39:09;26.00;1.00
5304;DHT22;2674;49.722;10.892;2023-08-20T07:41:34;26.20;1.00
5304;DHT22;2674;49.722;10.892;2023-08-20T07:44:00;26.20;99.90
5304;DHT22;2674;49.722;10.892;2023-08-20T07:46:26;26.30;99.90
5304;DHT22;2674;49.722;10.892;2023-08-20T07:48:52;26.30;1.00
5304;DHT22;2674;49.722;10.892;2023-08-20T07:51:18;26.30;56.00
5304;DHT22;2674;49.722;10.892;2023-08-20T07:53:44;26.40;1.00
5304;DHT22;2674;49.722;10.892;2023-08-20T07:56:10;26.40;99.90
5304;DHT22;2674;49.722;10.892;2023-08-20T07:58:35;26.50;99.90
5304;DHT22;2674;49.722;10.892;2023-08-20T08:01:01;26.50;99.90
5304;DHT22;2674;49.722;10.892;2023-08-20T08:03:28;26.60;99.90
5304;DHT22;2674;49.722;10.892;2023-08-20T08:05:54;26.60;1.00
5304;DHT22;2674;49.722;10.892;2023-08-20T08:08:20;26.80;1.00
5304;DHT22;2674;49.722;10.892;2023-08-20T08:10:46;26.90;1.00
5304;DHT22;2674;49.722;10.892;2023-08-20T08:13:20;27.00;1.00
5304;DHT22;2674;49.722;10.892;2023-08-20T08:15:46;27.00;1.00
5304;DHT22;2674;49.722;10.892;2023-08-20T08:18:11;27.00;1.00
5304;DHT22;2674;49.722;10.892;2023-08-20T08:20:37;27.10;1.00
5304;DHT22;2674;49.722;10.892;2023-08-20T08:23:04;27.10;1.00
5304;DHT22;2674;49.722;10.892;2023-08-20T08:25:29;27.20;1.00
5304;DHT22;2674;49.722;10.892;2023-08-20T08:27:55;27.30;1.00
5304;DHT22;2674;49.722;10.892;2023-08-20T08:30:22;27.40;1.00
5304;DHT22;2674;49.722;10.892;2023-08-20T08:32:48;27.60;1.00
5304;DHT22;2674;49.722;10.892;2023-08-20T08:35:14;27.70;99.90
5304;DHT22;2674;49.722;10.892;2023-08-20T08:37:39;27.90;99.90
5304;DHT22;2674;49.722;10.892;2023-08-20T08:40:06;28.10;99.90
5304;DHT22;2674;49.722;10.892;2023-08-20T08:42:33;28.10;99.90
5304;DHT22;2674;49.722;10.892;2023-08-20T08:45:00;28.20;99.90
5304;DHT22;2674;49.722;10.892;2023-08-20T08:47:26;28.50;99.90
5304;DHT22;2674;49.722;10.892;2023-08-20T08:49:55;28.60;99.90
5304;DHT22;2674;49.722;10.892;2023-08-20T08:52:23;28.60;1.00
5304;DHT22;2674;49.722;10.892;2023-08-20T08:54:49;28.80;1.00
5304;DHT22;2674;49.722;10.892;2023-08-20T08:57:15;28.90;99.90
5304;DHT22;2674;49.722;10.892;2023-08-20T08:59:44;28.90;1.00
5304;DHT22;2674;49.722;10.892;2023-08-20T09:02:12;28.70;1.00
5304;DHT22;2674;49.722;10.892;2023-08-20T09:04:41;28.80;1.00
5304;DHT22;2674;49.722;10.892;2023-08-20T09:07:12;28.90;1.00
5304;DHT22;2674;49.722;10.892;2023-08-20T09:09:45;29.10;1.00
5304;DHT22;2674;49.722;10.892;2023-08-20T09:12:15;29.30;1.00
5304;DHT22;2674;49.722;10.892;2023-08-20T09:14:49;29.50;1.00
5304;DHT22;2674;49.722;10.892;2023-08-20T09:17:15;29.60;1.00
5304;DHT22;2674;49.722;10.892;2023-08-20T09:19:44;29.70;1.00
5304;DHT22;2674;49.722;10.892;2023-08-20T09:22:11;29.70;1.00
5304;DHT22;2674;49.722;10.892;2023-08-20T09:24:42;29.80;1.00
5304;DHT22;2674;49.722;10.892;2023-08-20T09:27:08;29.80;1.00
5304;DHT22;2674;49.722;10.892;2023-08-20T09:29:47;29.90;1.00
5304;DHT22;2674;49.722;10.892;2023-08-20T09:32:20;30.00;1.00
5304;DHT22;2674;49.722;10.892;2023-08-20T09:34:48;30.00;1.00
5304;DHT22;2674;49.722;10.892;2023-08-20T09:37:15;30.00;1.00
5304;DHT22;2674;49.722;10.892;2023-08-20T09:39:42;30.10;1.00
5304;DHT22;2674;49.722;10.892;2023-08-20T09:42:09;30.20;1.00
5304;DHT22;2674;49.722;10.892;2023-08-20T09:44:37;30.30;1.00
5304;DHT22;2674;49.722;10.892;2023-08-20T09:47:15;30.30;1.00
5304;DHT22;2674;49.722;10.892;2023-08-20T09:49:43;30.40;1.00
5304;DHT22;2674;49.722;10.892;2023-08-20T09:52:11;30.50;1.00
5304;DHT22;2674;49.722;10.892;2023-08-20T09:55:05;30.60;1.00
5304;DHT22;2674;49.722;10.892;2023-08-20T10:00:01;30.70;1.00
5304;DHT22;2674;49.722;10.892;2023-08-20T10:02:29;30.70;1.00
5304;DHT22;2674;49.722;10.892;2023-08-20T10:04:55;30.80;1.00
5304;DHT22;2674;49.722;10.892;2023-08-20T10:07:22;30.80;1.00
5304;DHT22;2674;49.722;10.892;2023-08-20T10:09:50;31.00;1.00
5304;DHT22;2674;49.722;10.892;2023-08-20T10:12:18;31.20;1.00
5304;DHT22;2674;49.722;10.892;2023-08-20T10:14:44;31.20;1.00
5304;DHT22;2674;49.722;10.892;2023-08-20T10:17:11;31.30;1.00
5304;DHT22;2674;49.722;10.892;2023-08-20T10:19:37;31.50;1.00
5304;DHT22;2674;49.722;10.892;2023-08-20T10:22:07;31.60;1.00
5304;DHT22;2674;49.722;10.892;2023-08-20T10:24:51;31.50;1.00
5304;DHT22;2674;49.722;10.892;2023-08-20T10:27:26;31.60;1.00
5304;DHT22;2674;49.722;10.892;2023-08-20T10:29:55;31.80;1.00
5304;DHT22;2674;49.722;10.892;2023-08-20T10:32:48;31.90;1.00
5304;DHT22;2674;49.722;10.892;2023-08-20T10:38:12;31.90;1.00
5304;DHT22;2674;49.722;10.892;2023-08-20T10:40:58;31.90;1.00
5304;DHT22;2674;49.722;10.892;2023-08-20T10:43:39;32.00;1.00
5304;DHT22;2674;49.722;10.892;2023-08-20T10:46:08;32.20;1.00
5304;DHT22;2674;49.722;10.892;2023-08-20T10:48:39;32.40;1.00
5304;DHT22;2674;49.722;10.892;2023-08-20T10:51:12;32.60;1.00
5304;DHT22;2674;49.722;10.892;2023-08-20T10:53:39;32.70;1.00
5304;DHT22;2674;49.722;10.892;2023-08-20T10:58:34;32.80;99.90
5304;DHT22;2674;49.722;10.892;2023-08-20T11:01:22;32.90;99.90
5304;DHT22;2674;49.722;10.892;2023-08-20T11:03:49;32.80;99.90
5304;DHT22;2674;49.722;10.892;2023-08-20T11:06:16;32.80;99.90
5304;DHT22;2674;49.722;10.892;2023-08-20T11:08:42;32.80;99.90
5304;DHT22;2674;49.722;10.892;2023-08-20T11:11:09;32.70;99.90
5304;DHT22;2674;49.722;10.892;2023-08-20T11:13:36;32.60;99.90
5304;DHT22;2674;49.722;10.892;2023-08-20T11:16:02;32.60;99.90
5304;DHT22;2674;49.722;10.892;2023-08-20T11:18:28;32.70;99.90
5304;DHT22;2674;49.722;10.892;2023-08-20T11:20:55;32.60;99.90
5304;DHT22;2674;49.722;10.892;2023-08-20T11:23:22;32.70;99.90
5304;DHT22;2674;49.722;10.892;2023-08-20T11:25:48;32.80;99.90
5304;DHT22;2674;49.722;10.892;2023-08-20T11:28:14;32.80;99.90
5304;DHT22;2674;49.722;10.892;2023-08-20T11:30:40;32.70;99.90
5304;DHT22;2674;49.722;10.892;2023-08-20T11:33:05;32.70;99.90
5304;DHT22;2674;49.722;10.892;2023-08-20T11:35:34;32.90;99.90
5304;DHT22;2674;49.722;10.892;2023-08-20T11:38:00;32.90;99.90
5304;DHT22;2674;49.722;10.892;2023-08-20T11:40:28;33.00;99.90
5304;DHT22;2674;49.722;10.892;2023-08-20T11:42:54;33.10;99.90
5304;DHT22;2674;49.722;10.892;2023-08-20T11:45:20;33.10;99.90
5304;DHT22;2674;49.722;10.892;2023-08-20T11:47:45;33.10;99.90
5304;DHT22;2674;49.722;10.892;2023-08-20T11:50:11;33.30;99.90
5304;DHT22;2674;49.722;10.892;2023-08-20T11:52:37;33.40;99.90
5304;DHT22;2674;49.722;10.892;2023-08-20T11:55:05;33.50;99.90
5304;DHT22;2674;49.722;10.892;2023-08-20T11:57:32;33.50;99.90
5304;DHT22;2674;49.722;10.892;2023-08-20T12:00:05;33.60;99.90
5304;DHT22;2674;49.722;10.892;2023-08-20T12:02:41;33.60;99.90
5304;DHT22;2674;49.722;10.892;2023-08-20T12:05:09;33.70;99.90
5304;DHT22;2674;49.722;10.892;2023-08-20T12:07:35;33.80;99.90
5304;DHT22;2674;49.722;10.892;2023-08-20T12:10:20;33.80;99.90
5304;DHT22;2674;49.722;10.892;2023-08-20T12:12:49;33.90;99.90
5304;DHT22;2674;49.722;10.892;2023-08-20T12:15:16;33.80;99.90
5304;DHT22;2674;49.722;10.892;2023-08-20T12:17:43;33.80;99.90
5304;DHT22;2674;49.722;10.892;2023-08-20T12:20:09;33.90;99.90
5304;DHT22;2674;49.722;10.892;2023-08-20T12:22:40;33.90;99.90
5304;DHT22;2674;49.722;10.892;2023-08-20T12:25:06;34.00;99.90
5304;DHT22;2674;49.722;10.892;2023-08-20T12:27:34;34.00;99.90
5304;DHT22;2674;49.722;10.892;2023-08-20T12:30:00;34.10;99.90
5304;DHT22;2674;49.722;10.892;2023-08-20T12:32:25;34.20;99.90
5304;DHT22;2674;49.722;10.892;2023-08-20T12:34:51;34.20;99.90
5304;DHT22;2674;49.722;10.892;2023-08-20T12:37:17;34.10;99.90
5304;DHT22;2674;49.722;10.892;2023-08-20T12:39:43;34.30;99.90
5304;DHT22;2674;49.722;10.892;2023-08-20T12:42:08;34.20;99.90
5304;DHT22;2674;49.722;10.892;2023-08-20T12:44:34;34.30;99.90
5304;DHT22;2674;49.722;10.892;2023-08-20T12:47:00;34.30;99.90
5304;DHT22;2674;49.722;10.892;2023-08-20T12:49:26;34.40;99.90
5304;DHT22;2674;49.722;10.892;2023-08-20T12:51:52;34.50;99.90
5304;DHT22;2674;49.722;10.892;2023-08-20T12:54:17;34.60;99.90
5304;DHT22;2674;49.722;10.892;2023-08-20T12:56:43;34.80;99.90
5304;DHT22;2674;49.722;10.892;2023-08-20T12:59:10;34.90;99.90
5304;DHT22;2674;49.722;10.892;2023-08-20T13:01:36;35.10;99.90
5304;DHT22;2674;49.722;10.892;2023-08-20T13:04:02;35.00;99.90
5304;DHT22;2674;49.722;10.892;2023-08-20T13:06:29;35.10;99.90
5304;DHT22;2674;49.722;10.892;2023-08-20T13:08:55;35.00;99.90
5304;DHT22;2674;49.722;10.892;2023-08-20T13:11:22;34.90;99.90
5304;DHT22;2674;49.722;10.892;2023-08-20T13:13:51;35.00;99.90
5304;DHT22;2674;49.722;10.892;2023-08-20T13:16:19;35.20;99.90
5304;DHT22;2674;49.722;10.892;2023-08-20T13:18:45;35.30;99.90
5304;DHT22;2674;49.722;10.892;2023-08-20T13:21:11;35.40;99.90
5304;DHT22;2674;49.722;10.892;2023-08-20T13:23:37;35.50;99.90
5304;DHT22;2674;49.722;10.892;2023-08-20T13:26:02;35.50;99.90
5304;DHT22;2674;49.722;10.892;2023-08-20T13:28:29;35.50;99.90
5304;DHT22;2674;49.722;10.892;2023-08-20T13:30:54;35.40;99.90
5304;DHT22;2674;49.722;10.892;2023-08-20T13:33:20;35.40;99.90
5304;DHT22;2674;49.722;10.892;2023-08-20T13:35:46;35.10;99.90
5304;DHT22;2674;49.722;10.892;2023-08-20T13:38:12;35.10;99.90
5304;DHT22;2674;49.722;10.892;2023-08-20T13:40:38;35.00;99.90
5304;DHT22;2674;49.722;10.892;2023-08-20T13:43:04;34.90;99.90
5304;DHT22;2674;49.722;10.892;2023-08-20T13:45:30;34.90;99.90
5304;DHT22;2674;49.722;10.892;2023-08-20T13:47:56;34.90;99.90
5304;DHT22;2674;49.722;10.892;2023-08-20T13:50:22;35.00;99.90
5304;DHT22;2674;49.722;10.892;2023-08-20T13:52:48;34.90;99.90
5304;DHT22;2674;49.722;10.892;2023-08-20T13:55:14;34.90;99.90
5304;DHT22;2674;49.722;10.892;2023-08-20T13:57:41;34.90;99.90
5304;DHT22;2674;49.722;10.892;2023-08-20T14:00:07;34.90;99.90
5304;DHT22;2674;49.722;10.892;2023-08-20T14:02:35;34.70;99.90
5304;DHT22;2674;49.722;10.892;2023-08-20T14:05:01;34.70;99.90
5304;DHT22;2674;49.722;10.892;2023-08-20T14:07:30;35.00;99.90
5304;DHT22;2674;49.722;10.892;2023-08-20T14:10:05;35.20;99.90
5304;DHT22;2674;49.722;10.892;2023-08-20T14:12:31;35.10;99.90
5304;DHT22;2674;49.722;10.892;2023-08-20T14:14:57;35.20;99.90
5304;DHT22;2674;49.722;10.892;2023-08-20T14:17:23;35.20;99.90
5304;DHT22;2674;49.722;10.892;2023-08-20T14:19:49;35.10;99.90
5304;DHT22;2674;49.722;10.892;2023-08-20T14:22:15;35.00;99.90
5304;DHT22;2674;49.722;10.892;2023-08-20T14:24:41;34.50;99.90
5304;DHT22;2674;49.722;10.892;2023-08-20T14:27:07;34.50;99.90
5304;DHT22;2674;49.722;10.892;2023-08-20T14:29:36;34.60;99.90
5304;DHT22;2674;49.722;10.892;2023-08-20T14:32:02;34.80;99.90
5304;DHT22;2674;49.722;10.892;2023-08-20T14:34:28;34.80;99.90
5304;DHT22;2674;49.722;10.892;2023-08-20T14:36:54;34.70;99.90
5304;DHT22;2674;49.722;10.892;2023-08-20T14:39:19;34.70;99.90
5304;DHT22;2674;49.722;10.892;2023-08-20T14:41:45;34.80;99.90
5304;DHT22;2674;49.722;10.892;2023-08-20T14:44:11;34.90;99.90
5304;DHT22;2674;49.722;10.892;2023-08-20T14:46:37;35.00;99.90
5304;DHT22;2674;49.722;10.892;2023-08-20T14:49:04;35.10;99.90
5304;DHT22;2674;49.722;10.892;2023-08-20T14:51:29;35.20;99.90
5304;DHT22;2674;49.722;10.892;2023-08-20T14:53:55;35.20;99.90
5304;DHT22;2674;49.722;10.892;2023-08-20T14:56:21;35.20;99.90
5304;DHT22;2674;49.722;10.892;2023-08-20T14:58:47;35.10;99.90
5304;DHT22;2674;49.722;10.892;2023-08-20T15:01:13;35.10;99.90
5304;DHT22;2674;49.722;10.892;2023-08-20T15:03:39;35.10;99.90
5304;DHT22;2674;49.722;10.892;2023-08-20T15:06:05;35.10;99.90
5304;DHT22;2674;49.722;10.892;2023-08-20T15:08:31;35.10;99.90
5304;DHT22;2674;49.722;10.892;2023-08-20T15:10:59;35.00;99.90
5304;DHT22;2674;49.722;10.892;2023-08-20T15:13:27;35.00;99.90
5304;DHT22;2674;49.722;10.892;2023-08-20T15:15:53;35.00;99.90
5304;DHT22;2674;49.722;10.892;2023-08-20T15:18:20;34.90;99.90
5304;DHT22;2674;49.722;10.892;2023-08-20T15:20:52;34.90;99.90
5304;DHT22;2674;49.722;10.892;2023-08-20T15:23:18;35.00;99.90
5304;DHT22;2674;49.722;10.892;2023-08-20T15:25:47;34.90;99.90
5304;DHT22;2674;49.722;10.892;2023-08-20T15:28:13;34.50;99.90
5304;DHT22;2674;49.722;10.892;2023-08-20T15:30:38;34.50;99.90
5304;DHT22;2674;49.722;10.892;2023-08-20T15:33:04;34.50;99.90
5304;DHT22;2674;49.722;10.892;2023-08-20T15:35:30;34.50;99.90
5304;DHT22;2674;49.722;10.892;2023-08-20T15:37:56;34.60;99.90
5304;DHT22;2674;49.722;10.892;2023-08-20T15:40:22;34.60;99.90
5304;DHT22;2674;49.722;10.892;2023-08-20T15:42:48;34.70;99.90
5304;DHT22;2674;49.722;10.892;2023-08-20T15:45:14;34.80;99.90
5304;DHT22;2674;49.722;10.892;2023-08-20T15:47:40;34.80;99.90
5304;DHT22;2674;49.722;10.892;2023-08-20T15:50:08;34.80;99.90
5304;DHT22;2674;49.722;10.892;2023-08-20T15:52:34;34.70;99.90
5304;DHT22;2674;49.722;10.892;2023-08-20T15:55:00;34.70;99.90
5304;DHT22;2674;49.722;10.892;2023-08-20T15:57:26;34.60;99.90
5304;DHT22;2674;49.722;10.892;2023-08-20T15:59:51;34.60;99.90
5304;DHT22;2674;49.722;10.892;2023-08-20T16:02:18;34.40;99.90
5304;DHT22;2674;49.722;10.892;2023-08-20T16:04:44;34.30;99.90